Time;durP1;ratioP1;P1;durP2;ratioP2;P2;SDS_P1;SDS_P2;PMS_P1;PMS_P2;Temp;Humidity;BMP_temperature;BMP_pressure;BME280_temperature;BME280_humidity;BME280_pressure;Samples;Min_cycle;Max_cycle;Signal;HPM_P1;HPM_P2
2022/04/08 00:02:03;;;;;;;11.80;2.03;;;;;;;7.02;73.00;99551.13;3572766;40;20076;-65
2022/04/08 00:04:30;;;;;;;11.35;2.10;;;;;;;7.01;73.30;99552.09;3567648;40;20068;-65
2022/04/08 00:06:56;;;;;;;10.43;2.33;;;;;;;7.08;72.98;99564.06;3573170;40;20048;-64
2022/04/08 00:09:23;;;;;;;10.10;2.15;;;;;;;7.10;73.04;99556.78;3568653;40;20059;-65
2022/04/08 00:11:49;;;;;;;13.35;2.50;;;;;;;7.12;72.67;99573.56;3574620;40;20052;-64
2022/04/08 00:14:15;;;;;;;12.45;2.15;;;;;;;7.14;72.18;99585.03;3566679;40;20173;-65
2022/04/08 00:16:40;;;;;;;13.82;2.65;;;;;;;7.11;72.00;99569.19;3577125;40;20060;-65
2022/04/08 00:19:06;;;;;;;9.13;2.58;;;;;;;7.18;72.08;99589.19;3553192;40;20623;-65
2022/04/08 00:21:32;;;;;;;12.43;2.40;;;;;;;7.19;72.05;99588.22;3577652;40;20082;-65
2022/04/08 00:23:58;;;;;;;8.98;2.35;;;;;;;7.19;72.06;99593.56;3568049;40;20348;-65
2022/04/08 00:26:23;;;;;;;11.55;2.00;;;;;;;7.24;72.10;99603.13;3558722;40;20064;-65
2022/04/08 00:28:49;;;;;;;11.95;2.15;;;;;;;7.00;71.78;99565.53;3572787;40;20055;-64
2022/04/08 00:31:15;;;;;;;13.13;2.60;;;;;;;7.20;71.99;99594.44;3558416;40;21039;-65
2022/04/08 00:33:40;;;;;;;9.80;2.40;;;;;;;7.18;72.59;99599.03;3564137;40;20044;-65
2022/04/08 00:36:06;;;;;;;16.80;2.42;;;;;;;7.14;72.26;99594.88;3571514;40;20747;-65
2022/04/08 00:38:32;;;;;;;9.50;2.08;;;;;;;7.12;71.56;99599.44;3568310;40;20068;-65
2022/04/08 00:40:59;;;;;;;12.63;2.67;;;;;;;7.08;71.68;99601.47;3571910;40;20335;-64
2022/04/08 00:43:39;;;;;;;16.13;2.90;;;;;;;6.90;71.99;99582.16;3574418;40;20052;-65
2022/04/08 00:46:07;;;;;;;11.70;2.60;;;;;;;7.07;71.57;99621.16;3562702;40;20063;-64
2022/04/08 00:48:33;;;;;;;11.77;2.30;;;;;;;7.04;72.37;99615.13;3574214;40;20310;-65
2022/04/08 00:51:01;;;;;;;10.43;2.20;;;;;;;7.11;71.87;99625.31;3560625;40;20307;-64
2022/04/08 00:53:30;;;;;;;13.00;2.30;;;;;;;7.05;71.90;99624.88;3575966;40;20064;-65
2022/04/08 00:55:57;;;;;;;12.65;2.72;;;;;;;6.69;71.40;99562.22;3565124;40;20044;-64
2022/04/08 00:58:25;;;;;;;15.13;2.83;;;;;;;7.18;71.24;99633.78;3575754;40;20052;-65
2022/04/08 01:00:51;;;;;;;11.18;2.25;;;;;;;7.15;71.50;99650.88;3570520;40;20346;-64
2022/04/08 01:03:17;;;;;;;17.83;2.80;;;;;;;7.06;71.36;99619.41;3569586;40;20048;-65
2022/04/08 01:05:42;;;;;;;12.77;2.38;;;;;;;7.15;70.84;99640.19;3565728;40;20487;-65
2022/04/08 01:08:11;;;;;;;14.65;2.85;;;;;;;7.13;71.15;99642.09;3572618;40;20048;-65
2022/04/08 01:10:38;;;;;;;12.73;2.50;;;;;;;7.12;71.05;99645.72;3567386;40;20060;-65
2022/04/08 01:13:04;;;;;;;11.27;2.22;;;;;;;7.06;70.34;99656.81;3571025;40;20056;-64
2022/04/08 01:15:30;;;;;;;12.05;2.50;;;;;;;7.04;70.63;99658.75;3577555;40;20321;-64
2022/04/08 01:17:56;;;;;;;13.23;2.75;;;;;;;7.04;70.26;99658.75;3564216;40;20048;-64
2022/04/08 01:20:22;;;;;;;13.73;2.55;;;;;;;7.04;70.83;99669.44;3566385;40;20911;-66
2022/04/08 01:22:47;;;;;;;14.85;2.70;;;;;;;7.07;70.71;99663.00;3575410;40;20076;-67
2022/04/08 01:25:13;;;;;;;13.15;2.63;;;;;;;7.05;70.50;99665.81;3567590;40;20784;-66
2022/04/08 01:27:40;;;;;;;10.40;2.17;;;;;;;7.04;70.03;99669.44;3576528;40;20361;-66
2022/04/08 01:30:12;;;;;;;17.38;3.30;;;;;;;7.02;70.57;99665.16;3573044;40;20651;-63
2022/04/08 01:32:38;;;;;;;11.98;2.55;;;;;;;6.98;70.82;99672.50;3568803;40;20048;-63
2022/04/08 01:35:04;;;;;;;16.20;3.03;;;;;;;6.91;71.21;99674.72;3573186;40;20051;-65
2022/04/08 01:37:30;;;;;;;10.88;2.67;;;;;;;6.88;71.50;99684.72;3564959;40;20443;-65
2022/04/08 01:39:56;;;;;;;20.02;2.67;;;;;;;6.82;71.39;99674.44;3574575;40;20060;-65
2022/04/08 01:42:24;;;;;;;13.68;2.28;;;;;;;6.85;71.53;99684.94;3569436;40;20604;-65
2022/04/08 01:44:53;;;;;;;14.52;3.00;;;;;;;6.88;71.86;99679.38;3574395;40;20092;-65
2022/04/08 01:47:19;;;;;;;15.65;2.63;;;;;;;6.87;71.59;99681.22;3575347;40;20183;-65
2022/04/08 01:49:45;;;;;;;11.40;2.47;;;;;;;6.91;71.46;99681.88;3569311;40;20055;-65
2022/04/08 01:52:11;;;;;;;11.55;2.35;;;;;;;6.91;71.61;99682.75;3563708;40;20076;-65
2022/04/08 01:54:37;;;;;;;13.98;2.25;;;;;;;6.89;71.64;99676.63;3574704;40;20489;-65
2022/04/08 01:57:03;;;;;;;16.77;3.38;;;;;;;6.83;71.86;99668.16;3564408;40;20048;-64
2022/04/08 01:59:28;;;;;;;13.60;2.22;;;;;;;6.90;71.39;99689.03;3575824;40;20074;-64
2022/04/08 02:01:54;;;;;;;10.88;2.38;;;;;;;6.85;72.35;99684.94;3573141;40;20066;-65
2022/04/08 02:04:19;;;;;;;9.88;2.53;;;;;;;6.77;71.92;99690.78;3565636;40;20056;-64
2022/04/08 02:06:45;;;;;;;10.20;2.47;;;;;;;6.77;72.46;99697.94;3573948;40;20071;-65
2022/04/08 02:09:13;;;;;;;13.98;2.65;;;;;;;6.74;72.84;99704.31;3557586;40;20072;-65
2022/04/08 02:11:39;;;;;;;16.80;2.88;;;;;;;6.70;73.05;99706.34;3574198;40;20056;-65
2022/04/08 02:14:05;;;;;;;13.95;2.47;;;;;;;6.43;72.77;99673.38;3569412;40;20040;-65
2022/04/08 02:16:31;;;;;;;9.98;2.20;;;;;;;6.51;73.53;99697.78;3574779;40;20056;-65
2022/04/08 02:18:57;;;;;;;15.82;3.28;;;;;;;6.51;73.34;99703.13;3567805;40;20056;-65
2022/04/08 02:21:24;;;;;;;11.60;2.38;;;;;;;6.48;73.43;99700.66;3568817;40;20387;-64
2022/04/08 02:23:52;;;;;;;14.63;2.40;;;;;;;6.42;74.20;99698.38;3555866;40;20437;-65
2022/04/08 02:26:18;;;;;;;16.02;2.50;;;;;;;6.39;74.21;99712.75;3575906;40;20343;-64
2022/04/08 02:28:44;;;;;;;15.60;2.72;;;;;;;6.23;74.33;99688.84;3561028;40;20067;-64
2022/04/08 02:31:11;;;;;;;12.95;2.42;;;;;;;6.11;74.09;99675.41;3572297;40;20052;-64
2022/04/08 02:33:37;;;;;;;12.90;2.25;;;;;;;6.27;74.32;99714.38;3574241;40;20044;-64
2022/04/08 02:36:04;;;;;;;12.68;2.70;;;;;;;6.17;74.09;99704.38;3566818;40;20059;-64
2022/04/08 02:38:30;;;;;;;9.95;2.22;;;;;;;6.20;74.38;99721.03;3565827;40;20096;-64
2022/04/08 02:40:56;;;;;;;11.90;2.75;;;;;;;6.17;74.26;99713.22;3562362;40;20109;-64
2022/04/08 02:43:22;;;;;;;10.00;2.40;;;;;;;6.15;74.39;99715.16;3570377;40;20044;-64
2022/04/08 02:45:49;;;;;;;11.25;3.05;;;;;;;6.01;74.81;99701.78;3567489;40;20060;-64
2022/04/08 02:48:14;;;;;;;11.55;2.05;;;;;;;6.10;74.97;99714.56;3574547;40;20442;-64
2022/04/08 02:50:41;;;;;;;14.75;2.50;;;;;;;6.09;75.00;99719.97;3567616;40;20052;-64
2022/04/08 02:53:07;;;;;;;12.07;2.88;;;;;;;6.03;75.25;99715.91;3572734;40;20137;-64
2022/04/08 02:55:32;;;;;;;13.23;2.22;;;;;;;6.04;75.25;99722.94;3565809;40;21015;-64
2022/04/08 02:57:58;;;;;;;15.07;2.50;;;;;;;5.99;75.15;99719.69;3572676;40;20056;-64
2022/04/08 03:00:24;;;;;;;16.13;2.83;;;;;;;5.97;74.65;99724.28;3561703;40;20076;-65
2022/04/08 03:02:49;;;;;;;12.27;2.33;;;;;;;5.95;74.89;99726.16;3574272;40;20129;-65
2022/04/08 03:05:16;;;;;;;13.13;2.50;;;;;;;5.89;74.83;99724.69;3567295;40;20324;-64
2022/04/08 03:07:42;;;;;;;10.52;2.22;;;;;;;5.84;74.95;99723.28;3575262;40;20084;-64
2022/04/08 03:10:10;;;;;;;9.45;2.17;;;;;;;5.67;75.19;99695.78;3564476;40;20444;-64
2022/04/08 03:12:36;;;;;;;15.55;2.72;;;;;;;5.78;75.47;99722.66;3576309;40;20056;-64
2022/04/08 03:15:04;;;;;;;10.57;2.70;;;;;;;5.69;75.56;99720.56;3567909;40;20137;-64
2022/04/08 03:17:30;;;;;;;7.35;2.60;;;;;;;5.53;76.08;99701.09;3577214;40;20481;-65
2022/04/08 03:19:57;;;;;;;9.68;2.70;;;;;;;5.66;75.87;99731.41;3565432;40;20053;-65
2022/04/08 03:22:23;;;;;;;11.02;2.50;;;;;;;5.61;76.24;99721.94;3574674;40;20085;-65
2022/04/08 03:24:52;;;;;;;14.52;2.75;;;;;;;5.57;75.83;99727.47;3566660;40;20383;-64
2022/04/08 03:27:18;;;;;;;11.23;2.33;;;;;;;5.57;76.65;99747.94;3576767;40;20063;-64
2022/04/08 03:29:44;;;;;;;12.88;2.70;;;;;;;5.53;76.33;99747.25;3574382;40;20154;-65
2022/04/08 03:32:11;;;;;;;9.85;3.15;;;;;;;5.48;76.54;99743.13;3568246;40;20379;-65
2022/04/08 03:34:38;;;;;;;11.13;2.47;;;;;;;5.44;76.70;99741.59;3576081;40;20110;-62
2022/04/08 03:37:05;;;;;;;10.23;2.35;;;;;;;5.41;77.18;99739.13;3568969;40;20060;-63
2022/04/08 03:39:30;;;;;;;16.10;2.53;;;;;;;5.37;76.70;99733.09;3574559;40;20063;-62
2022/04/08 03:41:57;;;;;;;8.02;2.38;;;;;;;5.16;77.37;99708.56;3565870;40;20092;-62
2022/04/08 03:44:22;;;;;;;13.32;3.28;;;;;;;5.46;77.25;99753.03;3576516;40;20067;-62
2022/04/08 03:46:48;;;;;;;10.38;2.15;;;;;;;5.45;76.81;99751.31;3556930;40;20037;-63
2022/04/08 03:49:16;;;;;;;11.82;2.90;;;;;;;5.42;77.22;99749.66;3570780;40;20733;-62
2022/04/08 03:51:44;;;;;;;10.60;2.63;;;;;;;5.37;76.78;99758.91;3564221;40;20275;-62
2022/04/08 03:54:10;;;;;;;9.70;2.88;;;;;;;5.32;76.97;99752.00;3571922;40;20052;-62
2022/04/08 03:56:37;;;;;;;11.60;2.95;;;;;;;5.34;76.94;99760.78;3567896;40;20341;-62
2022/04/08 03:59:04;;;;;;;12.02;2.95;;;;;;;5.00;77.07;99699.72;3573399;40;20048;-62
2022/04/08 04:01:30;;;;;;;13.68;3.00;;;;;;;5.31;76.42;99768.94;3568609;40;20060;-63
2022/04/08 04:03:56;;;;;;;10.90;2.65;;;;;;;5.24;76.49;99754.28;3568339;40;20052;-62
2022/04/08 04:06:22;;;;;;;14.02;3.20;;;;;;;5.26;77.21;99760.34;3564480;40;20158;-63
2022/04/08 04:08:47;;;;;;;10.15;3.10;;;;;;;5.23;76.97;99760.56;3571696;40;20314;-63
2022/04/08 04:11:15;;;;;;;11.23;3.15;;;;;;;5.23;76.81;99760.56;3568977;40;20142;-63
2022/04/08 04:13:44;;;;;;;12.23;3.50;;;;;;;5.01;77.49;99717.41;3565004;40;20113;-63
2022/04/08 04:16:11;;;;;;;9.23;3.08;;;;;;;5.22;77.37;99750.81;3564907;40;20155;-63
2022/04/08 04:18:37;;;;;;;12.25;3.17;;;;;;;5.20;76.95;99755.41;3565891;40;20289;-63
2022/04/08 04:21:04;;;;;;;11.27;2.80;;;;;;;4.99;76.80;99724.66;3568099;40;20093;-62
2022/04/08 04:23:33;;;;;;;12.15;3.30;;;;;;;5.13;77.03;99746.03;3566284;40;20178;-62
2022/04/08 04:26:00;;;;;;;10.90;3.50;;;;;;;5.16;77.08;99751.16;3573454;40;20049;-62
2022/04/08 04:28:31;;;;;;;11.35;3.70;;;;;;;5.14;77.47;99745.09;3563370;40;20084;-63
2022/04/08 04:30:59;;;;;;;11.30;3.92;;;;;;;5.06;77.35;99734.00;3568331;40;20163;-61
2022/04/08 04:33:29;;;;;;;10.15;3.58;;;;;;;5.11;76.95;99753.25;3559668;40;20052;-62
2022/04/08 04:35:55;;;;;;;9.80;3.97;;;;;;;5.09;77.24;99756.00;3569182;40;20059;-62
2022/04/08 04:38:22;;;;;;;13.88;4.03;;;;;;;5.07;77.49;99757.00;3563420;40;20064;-62
2022/04/08 04:40:48;;;;;;;12.20;4.03;;;;;;;5.08;77.19;99764.09;3565449;40;20068;-61
2022/04/08 04:43:14;;;;;;;7.07;3.85;;;;;;;5.06;77.29;99765.97;3570945;40;20060;-62
2022/04/08 04:45:39;;;;;;;12.45;4.28;;;;;;;5.07;77.58;99759.69;3563766;40;20068;-61
2022/04/08 04:48:06;;;;;;;11.18;4.20;;;;;;;5.06;77.49;99750.84;3559127;40;20060;-61
2022/04/08 04:50:32;;;;;;;10.43;4.72;;;;;;;5.08;77.18;99761.41;3571147;40;20063;-62
2022/04/08 04:52:58;;;;;;;8.32;4.70;;;;;;;5.08;77.27;99759.59;3570851;40;20049;-62
2022/04/08 04:55:25;;;;;;;16.52;5.97;;;;;;;5.09;78.06;99765.78;3568188;40;20052;-64
2022/04/08 04:57:50;;;;;;;10.88;5.75;;;;;;;5.01;77.51;99752.91;3572472;40;20413;-63
2022/04/08 05:00:16;;;;;;;11.68;6.35;;;;;;;5.03;78.17;99763.47;3564233;40;21597;-64
2022/04/08 05:02:43;;;;;;;12.02;6.22;;;;;;;4.85;78.06;99734.28;3565598;40;20311;-61
2022/04/08 05:05:09;;;;;;;13.93;6.45;;;;;;;5.05;78.08;99750.94;3565756;40;20137;-62
2022/04/08 05:07:35;;;;;;;14.20;6.75;;;;;;;5.04;78.30;99758.06;3574387;40;20068;-61
2022/04/08 05:10:03;;;;;;;12.73;7.28;;;;;;;5.04;78.04;99746.53;3562995;40;20380;-62
2022/04/08 05:12:28;;;;;;;17.52;7.30;;;;;;;4.80;77.93;99715.03;3575108;40;20399;-64
2022/04/08 05:14:54;;;;;;;14.57;7.05;;;;;;;4.50;78.52;99674.13;3563489;40;20649;-62
2022/04/08 05:17:19;;;;;;;15.77;7.65;;;;;;;5.03;78.13;99759.00;3566135;40;20129;-63
2022/04/08 05:19:45;;;;;;;16.02;7.28;;;;;;;5.03;78.10;99752.81;3567651;40;20048;-63
2022/04/08 05:22:10;;;;;;;13.93;7.13;;;;;;;5.02;78.29;99751.09;3569883;40;20224;-63
2022/04/08 05:24:36;;;;;;;16.55;8.55;;;;;;;5.04;78.39;99757.19;3572141;40;20105;-62
2022/04/08 05:27:02;;;;;;;16.15;7.75;;;;;;;5.05;78.34;99758.94;3565387;40;20052;-63
2022/04/08 05:29:27;;;;;;;15.70;7.85;;;;;;;5.07;78.34;99759.69;3607070;22;20039;-62
2022/04/08 05:31:53;;;;;;;14.48;8.82;;;;;;;5.10;78.39;99754.19;3572578;39;20683;-62
2022/04/08 05:34:19;;;;;;;15.95;9.40;;;;;;;5.15;78.34;99752.13;3585626;39;20088;-63
2022/04/08 05:36:44;;;;;;;17.70;9.85;;;;;;;5.25;78.25;99748.00;3576832;39;20051;-62
2022/04/08 05:39:10;;;;;;;16.17;9.50;;;;;;;5.30;77.97;99742.41;3583565;39;20747;-62
2022/04/08 05:41:35;;;;;;;17.48;9.45;;;;;;;5.32;78.76;99741.34;3576698;39;20132;-62
2022/04/08 05:44:01;;;;;;;18.65;9.93;;;;;;;5.35;78.62;99745.66;3582562;39;20052;-63
2022/04/08 05:46:26;;;;;;;14.88;9.68;;;;;;;5.40;78.29;99742.75;3574896;39;20067;-62
2022/04/08 05:48:52;;;;;;;15.38;9.65;;;;;;;5.38;78.05;99736.63;3580022;39;20067;-63
2022/04/08 05:51:17;;;;;;;16.98;9.80;;;;;;;5.45;78.41;99737.97;3583515;40;20052;-63
2022/04/08 05:53:43;;;;;;;15.50;9.75;;;;;;;5.47;77.72;99733.44;3577066;39;20071;-61
2022/04/08 05:56:09;;;;;;;16.73;9.32;;;;;;;5.48;78.23;99732.47;3574090;39;20052;-63
2022/04/08 05:58:34;;;;;;;18.83;9.73;;;;;;;5.49;77.44;99723.56;3584269;39;20052;-63
2022/04/08 06:01:01;;;;;;;12.68;9.00;;;;;;;5.49;77.73;99728.88;3581084;39;20063;-63
2022/04/08 06:03:27;;;;;;;13.95;9.10;;;;;;;5.39;77.15;99709.03;3576495;39;20349;-64
2022/04/08 06:05:53;;;;;;;13.73;8.95;;;;;;;5.54;77.32;99727.63;3593660;39;20051;-63
2022/04/08 06:08:19;;;;;;;17.45;8.50;;;;;;;5.59;77.16;99730.91;3581096;39;20070;-63
2022/04/08 06:10:44;;;;;;;14.38;8.75;;;;;;;5.67;76.51;99722.44;3581220;39;20063;-62
2022/04/08 06:13:10;;;;;;;13.45;8.43;;;;;;;5.75;76.33;99724.66;3575799;39;20051;-63
2022/04/08 06:15:36;;;;;;;17.77;9.18;;;;;;;5.83;76.04;99725.06;3584159;39;20059;-63
2022/04/08 06:18:02;;;;;;;14.60;7.65;;;;;;;5.93;75.50;99722.72;3572265;39;20133;-63
2022/04/08 06:20:29;;;;;;;13.10;7.07;;;;;;;6.04;75.55;99725.59;3576836;39;20112;-64
2022/04/08 06:22:54;;;;;;;11.48;7.00;;;;;;;6.10;75.23;99730.56;3582092;39;20055;-63
2022/04/08 06:25:24;;;;;;;11.13;6.78;;;;;;;6.14;74.29;99736.56;3579777;39;20064;-64
2022/04/08 06:28:02;;;;;;;11.95;6.90;;;;;;;6.16;74.50;99738.19;3582521;39;20129;-63
2022/04/08 06:30:29;;;;;;;10.70;6.75;;;;;;;6.22;74.34;99731.63;3594150;39;20291;-64
2022/04/08 06:32:55;;;;;;;14.23;6.22;;;;;;;6.27;73.81;99743.72;3573224;39;20480;-63
2022/04/08 06:35:21;;;;;;;13.60;6.72;;;;;;;6.33;73.41;99726.47;3580927;39;20052;-63
2022/04/08 06:37:47;;;;;;;8.30;5.78;;;;;;;6.52;73.98;99726.19;3586971;39;20060;-62
2022/04/08 06:40:13;;;;;;;9.85;6.15;;;;;;;6.78;73.47;99731.69;3576241;39;20375;-62
2022/04/08 06:42:38;;;;;;;11.52;5.32;;;;;;;6.95;72.00;99710.13;3580560;39;20104;-62
2022/04/08 06:45:06;;;;;;;8.48;5.68;;;;;;;7.26;70.76;99716.09;3584150;39;20056;-62
2022/04/08 06:47:32;;;;;;;11.07;5.72;;;;;;;7.44;70.40;99715.75;3588528;39;20044;-63
2022/04/08 06:49:58;;;;;;;10.52;5.57;;;;;;;7.53;69.18;99718.78;3569937;39;20063;-63
2022/04/08 06:52:24;;;;;;;9.65;4.78;;;;;;;7.55;69.19;99712.38;3587544;39;20066;-63
2022/04/08 06:54:49;;;;;;;8.68;5.50;;;;;;;7.56;69.44;99714.06;3576658;39;20321;-62
2022/04/08 06:57:15;;;;;;;9.05;5.80;;;;;;;7.56;69.73;99719.41;3584809;39;20067;-63
2022/04/08 06:59:42;;;;;;;9.40;5.45;;;;;;;7.26;69.17;99663.50;3579730;39;20107;-63
2022/04/08 07:02:09;;;;;;;8.93;4.90;;;;;;;7.58;69.13;99716.63;3588058;39;20099;-63
2022/04/08 07:04:36;;;;;;;11.70;5.47;;;;;;;7.61;69.08;99700.38;3585780;39;20056;-63
2022/04/08 07:07:04;;;;;;;7.70;4.88;;;;;;;7.58;69.13;99722.88;3570062;39;20078;-63
2022/04/08 07:09:32;;;;;;;9.18;4.88;;;;;;;7.59;69.32;99721.03;3587181;39;20389;-64
2022/04/08 07:11:58;;;;;;;11.50;4.72;;;;;;;7.60;69.08;99720.91;3576133;39;20156;-63
2022/04/08 07:14:24;;;;;;;14.10;5.63;;;;;;;7.58;68.83;99717.50;3575142;39;20060;-63
2022/04/08 07:16:49;;;;;;;7.82;4.90;;;;;;;7.59;68.88;99716.53;3582286;39;20047;-62
2022/04/08 07:19:15;;;;;;;13.75;5.30;;;;;;;7.60;69.13;99709.38;3585510;39;20117;-63
2022/04/08 07:21:41;;;;;;;10.48;4.18;;;;;;;7.62;68.30;99712.81;3577624;39;20048;-62
2022/04/08 07:24:07;;;;;;;10.07;4.72;;;;;;;7.63;68.26;99707.34;3578231;39;20666;-63
2022/04/08 07:26:32;;;;;;;6.88;4.75;;;;;;;7.64;69.25;99711.75;3579223;39;20058;-63
2022/04/08 07:28:58;;;;;;;6.75;4.78;;;;;;;7.66;68.25;99707.13;3576575;39;20699;-64
2022/04/08 07:31:23;;;;;;;9.15;4.75;;;;;;;7.71;67.95;99697.94;3587476;39;20055;-64
2022/04/08 07:33:49;;;;;;;12.57;5.20;;;;;;;7.75;68.42;99700.31;3586987;39;20059;-63
2022/04/08 07:36:15;;;;;;;8.93;4.50;;;;;;;7.78;68.42;99692.09;3579082;39;20072;-63
2022/04/08 07:38:41;;;;;;;8.48;4.72;;;;;;;7.83;67.90;99689.06;3585281;39;20051;-63
2022/04/08 07:41:06;;;;;;;7.22;4.43;;;;;;;7.85;67.78;99692.50;3576909;39;20070;-62
2022/04/08 07:43:32;;;;;;;8.70;5.00;;;;;;;7.87;67.43;99690.59;3574124;39;20071;-62
2022/04/08 07:45:57;;;;;;;9.18;4.93;;;;;;;7.88;67.77;99695.84;3580438;39;20140;-64
2022/04/08 07:48:23;;;;;;;9.13;4.55;;;;;;;7.99;67.04;99689.75;3579276;39;20128;-63
2022/04/08 07:50:49;;;;;;;6.95;3.95;;;;;;;8.01;66.24;99690.47;3583324;39;20435;-63
2022/04/08 07:53:15;;;;;;;7.57;4.25;;;;;;;8.10;67.02;99692.53;3575526;39;20134;-63
2022/04/08 07:55:40;;;;;;;6.85;4.85;;;;;;;8.15;67.57;99689.53;3581937;39;20060;-63
2022/04/08 07:58:06;;;;;;;7.75;4.70;;;;;;;8.20;66.99;99682.03;3579229;39;20700;-64
2022/04/08 08:00:32;;;;;;;9.20;4.53;;;;;;;8.24;66.33;99688.00;3577593;39;20067;-63
2022/04/08 08:02:58;;;;;;;7.15;4.20;;;;;;;8.13;65.40;99670.03;3572852;39;20064;-60
2022/04/08 08:05:26;;;;;;;8.10;4.90;;;;;;;8.26;64.73;99686.09;3579303;39;20068;-63
2022/04/08 08:07:57;;;;;;;6.50;3.92;;;;;;;8.29;65.31;99685.88;3576818;39;20133;-63
2022/04/08 08:10:30;;;;;;;8.63;4.05;;;;;;;8.27;64.28;99682.44;3581772;39;20062;-63
2022/04/08 08:12:58;;;;;;;8.40;4.32;;;;;;;8.27;64.66;99677.94;3579143;39;20141;-63
2022/04/08 08:15:25;;;;;;;9.75;4.78;;;;;;;8.31;64.18;99678.63;3575805;39;20136;-64
2022/04/08 08:17:51;;;;;;;8.63;4.10;;;;;;;7.65;64.53;99569.03;3585302;39;20361;-64
2022/04/08 08:20:20;;;;;;;7.95;4.00;;;;;;;8.36;63.10;99673.75;3575937;39;20103;-63
2022/04/08 08:22:47;;;;;;;7.70;4.18;;;;;;;8.40;62.96;99683.31;3585640;39;20043;-64
2022/04/08 08:25:14;;;;;;;9.73;4.70;;;;;;;8.39;63.79;99680.75;3572496;39;20063;-62
2022/04/08 08:27:46;;;;;;;8.23;3.95;;;;;;;8.42;63.20;99678.72;3578875;39;20046;-64
2022/04/08 08:30:16;;;;;;;8.30;4.57;;;;;;;8.49;63.61;99666.59;3576185;39;20493;-62
2022/04/08 08:32:48;;;;;;;8.40;3.60;;;;;;;8.53;62.15;99673.47;3584050;39;20383;-63
2022/04/08 08:35:19;;;;;;;8.70;3.78;;;;;;;8.56;62.03;99661.66;3577842;39;20453;-61
2022/04/08 08:37:46;;;;;;;6.45;3.55;;;;;;;8.70;61.92;99664.19;3585214;39;20043;-63
2022/04/08 08:40:14;;;;;;;4.53;3.35;;;;;;;8.72;61.29;99658.72;3574780;39;20282;-62
2022/04/08 08:42:42;;;;;;;5.70;3.10;;;;;;;8.73;60.11;99649.72;3577848;39;20091;-63
2022/04/08 08:45:11;;;;;;;5.75;3.28;;;;;;;8.75;58.78;99645.09;3576415;39;20592;-61
2022/04/08 08:47:37;;;;;;;7.30;3.35;;;;;;;8.81;59.89;99636.59;3569957;39;20058;-63
2022/04/08 08:50:07;;;;;;;5.32;3.30;;;;;;;8.94;61.22;99633.88;3577633;39;20400;-63
2022/04/08 08:52:33;;;;;;;5.75;3.75;;;;;;;9.01;60.73;99641.38;3578138;39;20458;-63
2022/04/08 08:55:04;;;;;;;6.55;3.70;;;;;;;9.09;59.75;99634.56;3574275;39;20094;-63
2022/04/08 08:57:30;;;;;;;7.57;4.60;;;;;;;9.18;60.98;99625.84;3582520;39;20372;-62
2022/04/08 09:00:16;;;;;;;8.23;3.70;;;;;;;9.22;57.83;99621.94;3579284;39;20063;-63
2022/04/08 09:02:43;;;;;;;6.35;3.22;;;;;;;9.27;58.67;99625.16;3570974;39;20179;-63
2022/04/08 09:05:22;;;;;;;7.55;3.85;;;;;;;9.25;58.57;99622.56;3577691;39;20067;-63
2022/04/08 09:08:05;;;;;;;5.38;3.30;;;;;;;9.30;58.29;99616.88;3568876;39;20063;-62
2022/04/08 09:10:34;;;;;;;6.03;3.58;;;;;;;9.37;58.22;99604.69;3576419;39;20120;-63
2022/04/08 09:13:02;;;;;;;9.93;3.65;;;;;;;9.40;57.69;99612.50;3580807;39;20059;-62
2022/04/08 09:15:29;;;;;;;6.53;3.08;;;;;;;9.39;56.30;99618.84;3582605;39;20059;-63
2022/04/08 09:18:12;;;;;;;6.55;3.17;;;;;;;9.43;56.20;99617.63;3574140;39;20068;-62
2022/04/08 09:20:40;;;;;;;9.50;3.20;;;;;;;9.44;55.81;99622.03;3576470;39;20055;-63
2022/04/08 09:23:08;;;;;;;10.82;3.70;;;;;;;9.44;55.87;99622.03;3572060;39;20040;-62
2022/04/08 09:25:34;;;;;;;9.00;3.90;;;;;;;9.44;56.68;99619.34;3575639;39;20052;-64
2022/04/08 09:28:12;;;;;;;7.60;3.40;;;;;;;9.44;55.42;99616.66;3582094;39;20055;-62
2022/04/08 09:30:55;;;;;;;8.52;3.42;;;;;;;9.43;56.53;99620.31;3579097;39;20124;-63
2022/04/08 09:33:23;;;;;;;8.65;3.15;;;;;;;9.38;54.45;99627.84;3574400;39;20072;-62
2022/04/08 09:35:54;;;;;;;7.55;3.53;;;;;;;8.78;55.96;99526.97;3578850;39;20047;-63
2022/04/08 09:38:23;;;;;;;6.28;3.45;;;;;;;9.40;56.73;99619.72;3571739;39;20628;-64
2022/04/08 09:40:49;;;;;;;6.15;3.35;;;;;;;9.40;56.59;99614.34;3578867;39;20390;-63
2022/04/08 09:43:17;;;;;;;5.95;3.20;;;;;;;9.44;56.51;99615.81;3572154;39;20063;-63
2022/04/08 09:45:44;;;;;;;7.18;3.38;;;;;;;9.47;56.11;99605.69;3578251;39;20059;-63
2022/04/08 09:48:10;;;;;;;7.95;3.35;;;;;;;9.56;56.59;99614.88;3571240;39;20091;-64
2022/04/08 09:50:39;;;;;;;7.55;3.20;;;;;;;9.59;55.10;99613.78;3578666;39;20139;-63
2022/04/08 09:53:06;;;;;;;7.65;3.00;;;;;;;9.60;55.78;99615.47;3572741;39;20047;-62
2022/04/08 09:55:34;;;;;;;9.18;3.08;;;;;;;9.59;55.62;99613.78;3583018;39;20051;-63
2022/04/08 09:58:10;;;;;;;9.90;3.78;;;;;;;9.57;56.38;99596.94;3573419;39;20372;-63
2022/04/08 10:00:37;;;;;;;5.32;3.00;;;;;;;9.68;55.86;99618.44;3577782;39;20052;-63
2022/04/08 10:03:04;;;;;;;10.80;3.70;;;;;;;9.66;56.09;99599.75;3574637;39;20059;-63
2022/04/08 10:05:30;;;;;;;8.13;3.55;;;;;;;9.68;55.94;99605.03;3582835;39;20056;-64
2022/04/08 10:07:57;;;;;;;8.52;3.47;;;;;;;9.68;55.91;99607.72;3573103;39;20058;-64
2022/04/08 10:10:33;;;;;;;6.57;3.17;;;;;;;9.64;54.79;99601.72;3577749;39;20262;-65
2022/04/08 10:13:40;;;;;;;10.07;3.70;;;;;;;9.62;55.76;99613.56;3574857;39;20128;-64
2022/04/08 10:16:17;;;;;;;11.32;3.15;;;;;;;9.62;55.15;99616.22;3576486;39;20102;-65
2022/04/08 10:18:46;;;;;;;6.25;3.00;;;;;;;9.68;55.42;99610.41;3575947;39;20055;-65
2022/04/08 10:21:12;;;;;;;6.65;3.42;;;;;;;9.76;55.27;99603.44;3581009;39;20723;-65
2022/04/08 10:23:51;;;;;;;11.77;4.80;;;;;;;9.85;55.09;99604.53;3577314;39;20109;-64
2022/04/08 10:26:27;;;;;;;8.70;2.97;;;;;;;9.92;55.12;99604.91;3582084;39;20046;-64
2022/04/08 10:28:55;;;;;;;5.22;2.67;;;;;;;9.88;53.31;99603.47;3575272;39;20446;-65
2022/04/08 10:31:27;;;;;;;10.23;3.00;;;;;;;9.88;54.14;99598.09;3575761;39;22685;-65
2022/04/08 10:33:53;;;;;;;8.95;2.65;;;;;;;9.90;54.79;99591.63;3576831;39;20048;-65
2022/04/08 10:36:29;;;;;;;9.65;2.85;;;;;;;9.65;53.97;99554.28;3579611;39;20132;-66
2022/04/08 10:39:12;;;;;;;11.55;2.92;;;;;;;9.83;53.03;99595.78;3575788;39;20059;-67
2022/04/08 10:41:56;;;;;;;6.38;2.83;;;;;;;9.75;53.84;99587.47;3584145;39;20052;-65
2022/04/08 10:44:41;;;;;;;5.75;2.15;;;;;;;9.68;54.57;99581.72;3571474;39;20225;-65
2022/04/08 10:47:23;;;;;;;5.88;2.50;;;;;;;9.57;54.98;99567.44;3574240;39;20282;-66
2022/04/08 10:50:01;;;;;;;6.88;2.97;;;;;;;9.70;53.75;99595.00;3576281;39;20047;-65
2022/04/08 10:52:31;;;;;;;11.90;2.95;;;;;;;9.65;53.19;99590.00;3582565;39;20107;-65
2022/04/08 10:55:10;;;;;;;9.73;3.15;;;;;;;9.64;52.91;99587.44;3584562;39;20055;-66
2022/04/08 10:57:45;;;;;;;5.43;2.67;;;;;;;9.71;53.38;99586.84;3585927;39;20052;-64
2022/04/08 11:00:17;;;;;;;7.10;2.63;;;;;;;9.78;54.02;99597.97;3570017;39;20099;-64
2022/04/08 11:02:44;;;;;;;9.00;2.90;;;;;;;9.74;54.47;99591.13;3582715;39;20074;-64
2022/04/08 11:05:13;;;;;;;9.45;3.15;;;;;;;9.81;54.98;99586.13;3572756;39;20061;-65
2022/04/08 11:07:45;;;;;;;11.25;3.15;;;;;;;9.86;54.70;99575.88;3582776;39;20780;-64
2022/04/08 11:10:14;;;;;;;6.03;2.80;;;;;;;9.93;54.25;99580.66;3581500;39;20056;-64
2022/04/08 11:12:49;;;;;;;6.88;2.65;;;;;;;9.94;54.20;99566.25;3579704;39;20063;-65
2022/04/08 11:15:18;;;;;;;12.13;2.90;;;;;;;9.96;53.98;99575.03;3571917;39;20058;-66
2022/04/08 11:17:46;;;;;;;6.07;2.80;;;;;;;9.99;53.57;99569.44;3582399;39;20104;-66
2022/04/08 11:20:18;;;;;;;8.63;2.90;;;;;;;10.09;54.18;99566.00;3572176;39;20111;-65
2022/04/08 11:22:49;;;;;;;11.82;2.67;;;;;;;10.14;53.25;99566.47;3585523;40;20071;-65
2022/04/08 11:25:41;;;;;;;9.35;2.90;;;;;;;10.16;53.29;99561.84;3580338;39;20672;-66
2022/04/08 11:28:12;;;;;;;5.32;2.42;;;;;;;10.18;53.21;99559.88;3572817;39;20047;-66
2022/04/08 11:30:39;;;;;;;8.45;3.25;;;;;;;10.17;53.79;99552.81;3614811;22;20089;-64
2022/04/08 11:33:19;;;;;;;6.65;2.63;;;;;;;10.18;53.49;99546.44;3575102;40;20052;-63
2022/04/08 11:35:47;;;;;;;5.63;2.58;;;;;;;10.18;53.34;99538.41;3567632;40;20530;-63
2022/04/08 11:38:20;;;;;;;8.77;3.05;;;;;;;10.20;53.83;99536.44;3574496;40;20765;-63
2022/04/08 11:40:46;;;;;;;9.77;3.22;;;;;;;10.21;54.08;99522.03;3575688;40;20664;-63